createdAt,value
2023-05-25T00:00:57.394Z,94.14
2023-05-25T00:04:04.537Z,93.97
2023-05-25T00:07:06.732Z,93.65
2023-05-25T00:10:09.170Z,93.88
2023-05-25T00:13:10.948Z,93.74
2023-05-25T00:16:12.799Z,93.71
2023-05-25T00:19:15.657Z,93.53
2023-05-25T00:22:17.704Z,93.38
2023-05-25T00:25:20.967Z,93.83
2023-05-25T00:28:23.052Z,93.93
2023-05-25T00:31:25.257Z,94.32
2023-05-25T00:34:27.180Z,94.56
2023-05-25T00:37:28.946Z,94.98
2023-05-25T00:40:30.958Z,95.11
2023-05-25T00:43:32.895Z,94.91
2023-05-25T00:46:35.148Z,94.69
2023-05-25T00:49:37.856Z,94.63
2023-05-25T00:52:39.721Z,94.73
2023-05-25T00:56:00.007Z,94.38
2023-05-25T00:59:06.400Z,94.06
2023-05-25T01:02:13.924Z,94.01
2023-05-25T01:05:17.588Z,94.09
2023-05-25T01:08:21.938Z,94.23
2023-05-25T01:11:29.762Z,94.21
2023-05-25T01:14:32.911Z,94.38
2023-05-25T01:17:39.537Z,94.26
2023-05-25T01:20:59.735Z,94.59
2023-05-25T01:24:08.518Z,95.07
2023-05-25T01:27:22.988Z,95.36
2023-05-25T01:30:27.302Z,95.03
2023-05-25T01:33:30.761Z,94.83
2023-05-25T01:36:33.266Z,94.78
2023-05-25T01:39:34.986Z,94.85
2023-05-25T01:42:36.868Z,94.70
2023-05-25T01:45:40.531Z,94.85
2023-05-25T01:48:53.902Z,94.96
2023-05-25T01:52:19.752Z,94.74
2023-05-25T01:55:22.793Z,94.90
2023-05-25T01:58:27.437Z,94.91
2023-05-25T02:01:31.221Z,94.69
2023-05-25T02:04:34.209Z,94.88
2023-05-25T02:07:36.744Z,95.02
2023-05-25T02:10:38.474Z,95.34
2023-05-25T02:13:40.942Z,95.51
2023-05-25T02:16:42.841Z,95.39
2023-05-25T02:19:46.616Z,95.26
2023-05-25T02:22:48.502Z,95.20
2023-05-25T02:25:51.819Z,94.94
2023-05-25T02:28:53.777Z,94.75
2023-05-25T02:31:56.255Z,94.68
2023-05-25T02:34:58.130Z,94.47
2023-05-25T02:37:59.977Z,94.78
2023-05-25T02:41:02.052Z,94.68
2023-05-25T02:44:04.046Z,94.78
2023-05-25T02:47:07.717Z,95.07
2023-05-25T02:50:10.279Z,94.92
2023-05-25T02:53:17.923Z,94.88
2023-05-25T02:56:19.885Z,95.08
2023-05-25T02:59:21.755Z,95.01
2023-05-25T03:02:25.617Z,95.25
2023-05-25T03:05:27.945Z,95.31
2023-05-25T03:08:30.805Z,95.44
2023-05-25T03:11:34.433Z,95.46
2023-05-25T03:14:38.348Z,95.62
2023-05-25T03:17:41.862Z,95.70
2023-05-25T03:20:44.135Z,95.69
2023-05-25T03:23:46.202Z,96.16
2023-05-25T03:26:48.198Z,95.84
2023-05-25T03:29:51.582Z,95.47
2023-05-25T03:32:53.556Z,95.27
2023-05-25T03:35:55.925Z,95.67
2023-05-25T03:38:58.538Z,95.28
2023-05-25T03:42:01.093Z,95.33
2023-05-25T03:45:02.978Z,95.87
2023-05-25T03:48:05.362Z,95.57
2023-05-25T03:51:07.541Z,95.82
2023-05-25T03:54:09.437Z,95.74
2023-05-25T03:57:11.334Z,95.67
2023-05-25T04:00:14.135Z,95.83
2023-05-25T04:03:17.894Z,95.94
2023-05-25T04:06:19.971Z,95.87
2023-05-25T04:09:23.942Z,95.70
2023-05-25T04:12:27.275Z,95.68
2023-05-25T04:15:30.596Z,95.46
2023-05-25T04:18:45.201Z,95.80
2023-05-25T04:21:48.197Z,95.48
2023-05-25T04:24:51.297Z,94.51
2023-05-25T04:27:53.727Z,94.24
2023-05-25T04:31:13.644Z,93.99
2023-05-25T04:34:51.167Z,94.76
2023-05-25T04:37:57.737Z,94.83
2023-05-25T04:41:01.978Z,95.15
2023-05-25T04:44:09.798Z,94.75
2023-05-25T04:47:19.890Z,94.79
2023-05-25T04:50:21.946Z,95.02
2023-05-25T04:53:25.883Z,93.39
2023-05-25T04:56:27.971Z,93.55
2023-05-25T04:59:29.841Z,94.07
2023-05-25T05:02:32.597Z,92.29
2023-05-25T05:05:36.087Z,93.09
2023-05-25T05:08:39.679Z,93.14
2023-05-25T05:11:41.548Z,92.92
2023-05-25T05:14:43.637Z,93.11
2023-05-25T05:17:45.671Z,92.04
2023-05-25T05:20:49.285Z,92.44
2023-05-25T05:23:52.486Z,91.56
2023-05-25T05:26:58.790Z,91.49
2023-05-25T05:30:27.102Z,90.92
2023-05-25T05:33:29.143Z,90.18
2023-05-25T05:36:42.106Z,90.61
2023-05-25T05:39:55.104Z,89.04
2023-05-25T05:42:57.025Z,89.12
2023-05-25T05:45:58.910Z,88.67
2023-05-25T05:49:00.886Z,88.83
2023-05-25T05:52:04.012Z,88.45
2023-05-25T05:55:06.440Z,88.72
2023-05-25T05:58:08.767Z,88.29
2023-05-25T06:01:10.929Z,88.45
2023-05-25T06:04:12.851Z,87.17
2023-05-25T06:07:14.696Z,87.79
2023-05-25T06:10:16.785Z,88.00
2023-05-25T06:13:19.404Z,87.58
2023-05-25T06:16:21.261Z,87.59
2023-05-25T06:19:23.261Z,87.54
2023-05-25T06:22:27.976Z,87.55
2023-05-25T06:25:31.394Z,87.17
2023-05-25T06:28:33.881Z,86.80
2023-05-25T06:31:36.583Z,86.23
2023-05-25T06:34:38.858Z,86.16
2023-05-25T06:37:40.748Z,87.27
2023-05-25T06:40:42.939Z,86.43
2023-05-25T06:43:44.773Z,86.04
2023-05-25T06:46:57.312Z,85.70
2023-05-25T06:50:00.425Z,85.95
2023-05-25T06:53:02.155Z,85.67
2023-05-25T06:56:04.285Z,85.93
2023-05-25T06:59:06.266Z,86.40
2023-05-25T07:02:08.041Z,86.48
2023-05-25T07:05:10.114Z,86.00
2023-05-25T07:08:12.054Z,86.33
2023-05-25T07:11:14.398Z,87.10
2023-05-25T07:14:17.125Z,87.69
2023-05-25T07:17:19.515Z,86.62
2023-05-25T07:20:22.148Z,85.71
2023-05-25T07:23:23.977Z,86.31
2023-05-25T07:26:25.839Z,85.09
2023-05-25T07:29:27.621Z,85.43
2023-05-25T07:32:29.607Z,84.55
2023-05-25T07:35:31.534Z,85.63
2023-05-25T07:38:33.419Z,85.03
2023-05-25T07:41:35.630Z,85.07
2023-05-25T07:44:37.477Z,85.03
2023-05-25T07:47:39.420Z,84.18
2023-05-25T07:50:41.458Z,84.75
2023-05-25T07:53:43.373Z,84.56
2023-05-25T07:56:45.307Z,84.78
2023-05-25T07:59:47.195Z,85.20
2023-05-25T08:02:49.481Z,85.07
2023-05-25T08:05:51.975Z,84.84
2023-05-25T08:08:53.870Z,84.60
2023-05-25T08:12:07.815Z,84.00
2023-05-25T08:15:17.820Z,83.92
2023-05-25T08:18:19.778Z,83.70
2023-05-25T08:21:21.649Z,83.73
2023-05-25T08:24:23.442Z,83.56
2023-05-25T08:27:25.330Z,82.85
2023-05-25T08:30:27.320Z,84.67
2023-05-25T08:33:29.196Z,83.50
2023-05-25T08:36:34.305Z,83.63
2023-05-25T08:39:36.182Z,81.97
2023-05-25T08:42:38.031Z,81.77
2023-05-25T08:45:45.153Z,82.12
2023-05-25T08:48:51.998Z,82.44
2023-05-25T08:51:54.927Z,82.43
2023-05-25T08:55:01.492Z,82.08
2023-05-25T08:58:10.460Z,81.63
2023-05-25T09:01:18.384Z,81.67
2023-05-25T09:04:21.345Z,80.40
2023-05-25T09:07:24.612Z,81.25
2023-05-25T09:10:27.895Z,81.03
2023-05-25T09:13:30.107Z,80.89
2023-05-25T09:16:33.485Z,81.90
2023-05-25T09:19:36.761Z,81.82
2023-05-25T09:22:38.782Z,81.55
2023-05-25T09:25:41.662Z,79.62
2023-05-25T09:28:47.575Z,78.91
2023-05-25T09:31:51.141Z,79.66
2023-05-25T09:34:53.700Z,79.21
2023-05-25T09:37:55.916Z,78.95
2023-05-25T09:40:59.837Z,78.60
2023-05-25T09:44:11.024Z,78.26
2023-05-25T09:47:15.326Z,77.98
2023-05-25T09:50:18.069Z,78.50
2023-05-25T09:53:20.684Z,77.96
2023-05-25T09:56:23.978Z,78.48
2023-05-25T09:59:25.905Z,78.09
2023-05-25T10:02:28.423Z,77.89
2023-05-25T10:05:30.297Z,76.92
2023-05-25T10:08:33.577Z,77.00
2023-05-25T10:11:39.091Z,77.74
2023-05-25T10:14:42.983Z,77.15
2023-05-25T10:17:52.451Z,76.00
2023-05-25T10:21:02.830Z,76.22
2023-05-25T10:24:09.829Z,75.85
2023-05-25T10:27:27.065Z,75.41
2023-05-25T10:30:41.747Z,74.60
2023-05-25T10:33:47.452Z,73.07
2023-05-25T10:36:54.059Z,70.57
2023-05-25T10:39:57.590Z,71.04
2023-05-25T10:42:59.929Z,68.90
2023-05-25T10:46:02.053Z,69.20
2023-05-25T10:49:04.248Z,67.89
2023-05-25T10:52:06.359Z,63.88
2023-05-25T10:55:09.709Z,65.80
2023-05-25T10:58:16.864Z,64.83
2023-05-25T11:01:18.924Z,64.24
2023-05-25T11:04:20.921Z,64.13
2023-05-25T11:07:22.888Z,62.62
2023-05-25T11:10:54.496Z,60.28
2023-05-25T11:13:56.683Z,63.58
2023-05-25T11:17:19.858Z,59.94
2023-05-25T11:20:24.359Z,62.26
2023-05-25T11:23:26.411Z,62.50
2023-05-25T11:26:33.605Z,61.78
2023-05-25T11:29:37.427Z,61.35
2023-05-25T11:32:49.213Z,62.14
2023-05-25T11:35:52.366Z,62.97
2023-05-25T11:39:04.782Z,62.94
2023-05-25T11:42:11.639Z,63.00
2023-05-25T11:45:14.865Z,63.71
2023-05-25T11:48:16.957Z,64.97
2023-05-25T11:51:20.955Z,64.84
2023-05-25T11:54:24.257Z,64.19
2023-05-25T11:57:26.343Z,63.70
2023-05-25T12:00:28.659Z,61.71
2023-05-25T12:03:34.485Z,62.69
2023-05-25T12:06:40.426Z,63.46
2023-05-25T12:09:42.382Z,63.21
2023-05-25T12:12:49.444Z,63.79
2023-05-25T12:15:52.479Z,64.23
2023-05-25T12:18:55.097Z,63.50
2023-05-25T12:21:57.091Z,63.74
2023-05-25T12:24:58.981Z,63.42
2023-05-25T12:28:16.415Z,63.97
2023-05-25T12:31:25.616Z,64.78
2023-05-25T12:34:28.825Z,64.74
2023-05-25T12:37:30.983Z,65.42
2023-05-25T12:40:32.685Z,64.59
2023-05-25T12:43:43.141Z,63.95
2023-05-25T12:46:45.126Z,64.01
2023-05-25T12:49:48.584Z,63.28
2023-05-25T12:52:50.499Z,63.23
2023-05-25T12:56:01.734Z,62.53
2023-05-25T12:59:16.645Z,62.75
2023-05-25T13:02:18.540Z,62.80
2023-05-25T13:05:28.369Z,63.43
2023-05-25T13:08:30.550Z,63.29
2023-05-25T13:11:32.340Z,63.92
2023-05-25T13:14:34.421Z,63.71
2023-05-25T13:17:36.359Z,63.83
2023-05-25T13:20:38.480Z,62.83
2023-05-25T13:23:40.262Z,62.33
2023-05-25T13:26:44.017Z,61.88
2023-05-25T13:29:45.865Z,61.39
2023-05-25T13:32:50.403Z,60.45
2023-05-25T13:36:13.565Z,61.15
2023-05-25T13:39:15.413Z,61.75
2023-05-25T13:42:17.957Z,63.04
2023-05-25T13:45:19.840Z,63.41
2023-05-25T13:48:22.410Z,62.55
2023-05-25T13:51:24.297Z,62.91
2023-05-25T13:54:26.188Z,63.03
2023-05-25T13:57:28.147Z,62.76
2023-05-25T14:00:30.065Z,63.25
2023-05-25T14:03:32.168Z,63.44
2023-05-25T14:06:35.040Z,63.13
2023-05-25T14:09:37.009Z,63.66
2023-05-25T14:12:39.441Z,63.11
2023-05-25T14:15:41.487Z,63.42
2023-05-25T14:18:44.258Z,61.43
2023-05-25T14:21:47.096Z,62.04
2023-05-25T14:24:51.818Z,60.56
2023-05-25T14:27:53.575Z,60.06
2023-05-25T14:30:56.113Z,59.72
2023-05-25T14:33:58.021Z,59.41
2023-05-25T14:36:59.887Z,58.70
2023-05-25T14:40:01.775Z,58.53
2023-05-25T14:43:03.615Z,56.93
2023-05-25T14:46:06.038Z,57.46
2023-05-25T14:49:07.808Z,57.82
2023-05-25T14:52:09.655Z,57.55
2023-05-25T14:55:11.493Z,57.52
2023-05-25T14:58:13.420Z,57.62
2023-05-25T15:01:15.239Z,57.74
2023-05-25T15:04:17.085Z,57.56
2023-05-25T15:07:18.942Z,56.18
2023-05-25T15:10:20.797Z,57.61
2023-05-25T15:13:22.849Z,56.90
2023-05-25T15:16:24.772Z,55.45
2023-05-25T15:19:26.592Z,55.83
2023-05-25T15:22:28.474Z,54.40
2023-05-25T15:28:35.106Z,52.86
2023-05-25T15:31:36.961Z,53.55
2023-05-25T15:34:38.817Z,53.80
2023-05-25T15:37:40.682Z,54.88
2023-05-25T15:40:42.581Z,55.75
2023-05-25T15:43:58.179Z,55.72
2023-05-25T15:47:00.422Z,56.60
2023-05-25T15:50:02.212Z,56.92
2023-05-25T15:53:04.095Z,57.13
2023-05-25T15:56:06.045Z,57.78
2023-05-25T15:59:08.288Z,57.87
2023-05-25T16:02:10.350Z,58.20
2023-05-25T16:05:12.088Z,55.38
2023-05-25T16:08:14.331Z,55.80
2023-05-25T16:11:16.216Z,55.83
2023-05-25T16:14:18.045Z,55.38
2023-05-25T16:17:20.138Z,56.37
2023-05-25T16:20:21.857Z,56.51
2023-05-25T16:23:24.763Z,57.21
2023-05-25T16:26:27.209Z,57.73
2023-05-25T16:29:29.402Z,58.52
2023-05-25T16:32:31.247Z,58.86
2023-05-25T16:35:33.077Z,59.53
2023-05-25T16:38:34.852Z,59.73
2023-05-25T16:41:36.709Z,60.89
2023-05-25T16:44:38.595Z,61.75
2023-05-25T16:47:40.740Z,63.81
2023-05-25T16:50:42.603Z,65.73
2023-05-25T16:53:45.271Z,66.61
2023-05-25T16:56:47.086Z,67.41
2023-05-25T16:59:48.891Z,69.51
2023-05-25T17:02:50.855Z,69.49
2023-05-25T17:05:53.920Z,69.77
2023-05-25T17:08:55.995Z,70.31
2023-05-25T17:11:59.693Z,70.57
2023-05-25T17:15:01.561Z,70.67
2023-05-25T17:18:03.609Z,71.55
2023-05-25T17:21:05.672Z,72.09
2023-05-25T17:24:07.721Z,71.98
2023-05-25T17:27:09.697Z,71.96
2023-05-25T17:30:12.007Z,72.31
2023-05-25T17:33:13.736Z,72.95
2023-05-25T17:36:15.687Z,72.56
2023-05-25T17:39:17.588Z,72.68
2023-05-25T17:42:19.355Z,73.15
2023-05-25T17:45:21.167Z,73.34
2023-05-25T17:48:23.057Z,73.82
2023-05-25T17:51:24.940Z,74.24
2023-05-25T17:54:27.466Z,74.43
2023-05-25T17:57:29.315Z,74.68
2023-05-25T18:00:31.979Z,74.69
2023-05-25T18:03:33.955Z,75.01
2023-05-25T18:06:37.040Z,75.52
2023-05-25T18:09:38.947Z,75.61
2023-05-25T18:12:41.356Z,76.28
2023-05-25T18:15:43.226Z,77.05
2023-05-25T18:18:45.650Z,76.72
2023-05-25T18:21:47.509Z,77.19
2023-05-25T18:24:49.416Z,77.32
2023-05-25T18:27:51.177Z,77.73
2023-05-25T18:30:53.159Z,78.12
2023-05-25T18:33:54.965Z,78.04
2023-05-25T18:36:56.713Z,78.49
2023-05-25T18:39:58.469Z,78.61
2023-05-25T18:43:00.288Z,78.98
2023-05-25T18:46:02.234Z,79.67
2023-05-25T18:49:04.290Z,80.05
2023-05-25T18:52:08.194Z,80.23
2023-05-25T18:55:10.281Z,80.16
2023-05-25T18:58:12.149Z,80.28
2023-05-25T19:01:14.095Z,80.96
2023-05-25T19:04:16.064Z,81.05
2023-05-25T19:07:17.985Z,81.64
2023-05-25T19:10:19.813Z,82.15
2023-05-25T19:13:23.061Z,82.63
2023-05-25T19:16:25.004Z,82.86
2023-05-25T19:19:26.865Z,83.20
2023-05-25T19:22:28.690Z,83.36
2023-05-25T19:25:30.614Z,83.43
2023-05-25T19:28:32.392Z,83.15
2023-05-25T19:31:34.247Z,83.67
2023-05-25T19:34:36.999Z,83.34
2023-05-25T19:37:38.851Z,83.75
2023-05-25T19:40:40.781Z,84.37
2023-05-25T19:43:42.598Z,84.58
2023-05-25T19:46:44.421Z,84.98
2023-05-25T19:49:47.904Z,85.36
2023-05-25T19:52:49.770Z,85.13
2023-05-25T19:55:51.626Z,85.59
2023-05-25T19:58:53.392Z,85.26
2023-05-25T20:01:55.616Z,85.51
2023-05-25T20:04:57.563Z,87.06
2023-05-25T20:07:59.335Z,86.56
2023-05-25T20:11:01.166Z,86.48
2023-05-25T20:14:02.963Z,87.17
2023-05-25T20:17:04.843Z,86.88
2023-05-25T20:20:07.237Z,86.58
2023-05-25T20:23:09.738Z,86.98
2023-05-25T20:26:11.528Z,85.87
2023-05-25T20:29:13.500Z,85.71
2023-05-25T20:32:15.830Z,85.70
2023-05-25T20:35:17.757Z,85.67
2023-05-25T20:38:19.556Z,84.98
2023-05-25T20:41:21.387Z,84.85
2023-05-25T20:44:23.180Z,84.57
2023-05-25T20:47:25.017Z,84.57
2023-05-25T20:50:27.171Z,84.67
2023-05-25T20:53:28.947Z,85.21
2023-05-25T20:56:31.229Z,85.25
2023-05-25T20:59:33.003Z,85.10
2023-05-25T21:02:34.914Z,85.05
2023-05-25T21:05:38.126Z,85.00
2023-05-25T21:08:39.967Z,85.30
2023-05-25T21:11:41.937Z,85.44
2023-05-25T21:14:43.823Z,85.44
2023-05-25T21:17:46.054Z,85.59
2023-05-25T21:20:47.897Z,85.86
2023-05-25T21:23:49.784Z,86.09
2023-05-25T21:26:51.746Z,86.15
2023-05-25T21:29:54.750Z,86.26
2023-05-25T21:32:56.651Z,85.93
2023-05-25T21:35:58.593Z,85.77
2023-05-25T21:39:00.424Z,85.84
2023-05-25T21:42:02.453Z,86.02
2023-05-25T21:45:05.631Z,86.57
2023-05-25T21:48:07.501Z,86.28
2023-05-25T21:51:09.528Z,86.71
2023-05-25T21:54:11.386Z,86.45
2023-05-25T21:57:13.246Z,86.31
2023-05-25T22:00:16.359Z,86.63
2023-05-25T22:03:18.606Z,87.16
2023-05-25T22:06:20.571Z,87.41
2023-05-25T22:09:22.938Z,87.71
2023-05-25T22:12:24.695Z,87.75
2023-05-25T22:15:26.558Z,87.78
2023-05-25T22:18:28.393Z,87.70
2023-05-25T22:21:30.217Z,87.75
2023-05-25T22:24:32.105Z,87.72
2023-05-25T22:27:34.012Z,88.05
2023-05-25T22:30:35.859Z,88.16
2023-05-25T22:33:37.738Z,88.23
2023-05-25T22:36:39.538Z,88.77
2023-05-25T22:39:41.320Z,88.89
2023-05-25T22:42:49.789Z,88.80
2023-05-25T22:45:54.039Z,88.96
2023-05-25T22:48:56.403Z,88.70
2023-05-25T22:51:58.313Z,89.17
2023-05-25T22:55:01.094Z,88.81
2023-05-25T22:58:02.949Z,88.87
2023-05-25T23:01:04.858Z,89.56
2023-05-25T23:04:06.847Z,89.44
2023-05-25T23:07:08.742Z,89.69
2023-05-25T23:10:11.308Z,89.98
2023-05-25T23:13:14.895Z,91.10
2023-05-25T23:16:18.773Z,90.47
2023-05-25T23:19:20.702Z,90.53
2023-05-25T23:22:22.599Z,90.43
2023-05-25T23:25:24.426Z,90.11
2023-05-25T23:28:26.441Z,90.31
2023-05-25T23:31:29.329Z,90.34
2023-05-25T23:34:31.302Z,90.49
2023-05-25T23:37:33.572Z,90.71
2023-05-25T23:40:35.572Z,91.10
2023-05-25T23:43:37.400Z,90.79
2023-05-25T23:46:39.271Z,90.80
2023-05-25T23:49:41.078Z,91.69
2023-05-25T23:52:46.053Z,91.81
2023-05-25T23:55:47.927Z,92.02
2023-05-25T23:58:49.823Z,91.81
